Aviation Digital Data Service (ADDS)

Output produced by METARs form (0509 UTC 21 February 2017)
found at http://www.aviationweather.gov/adds/metars/
 
KAOO 210453Z AUTO 09004KT 10SM CLR 06/M03 A3026 RMK AO2 SLP251 T00611028 401560039
KAOO 210353Z AUTO 06004KT 10SM CLR 08/M02 A3026 RMK AO2 SLP252 T00781022
KAOO 210253Z AUTO 07004KT 10SM CLR 08/M02 A3027 RMK AO2 SLP255 T00831017 53012
KAOO 210153Z AUTO 00000KT 10SM CLR 10/M02 A3025 RMK AO2 SLP249 T01001022
KAOO 210053Z AUTO 09004KT 10SM CLR 09/M02 A3023 RMK AO2 SLP243 T00941017
KAOO 202353Z AUTO 07003KT 10SM CLR 11/M02 A3023 RMK AO2 SLP243 T01111017 10156 20094 50008
KAOO 202253Z AUTO 07004KT 10SM CLR 11/M01 A3023 RMK AO2 SLP245 T01111011
KAOO 202153Z AUTO 06004KT 10SM CLR 14/M01 A3022 RMK AO2 SLP237 T01391006
KAOO 202053Z AUTO 03007KT 10SM CLR 15/M01 A3021 RMK AO2 SLP232 T01501006 56008
KAOO 201953Z AUTO 04007KT 10SM CLR 16/M01 A3021 RMK AO2 SLP233 T01561006
KAOO 201853Z AUTO VRB03KT 10SM CLR 15/M01 A3022 RMK AO2 SLP236 T01501006
KAOO 201753Z AUTO 36007KT 10SM CLR 13/M01 A3023 RMK AO2 SLP241 T01331011 10133 20044 58009
KAOO 201653Z AUTO 32005KT 10SM CLR 12/M01 A3026 RMK AO2 SLP251 T01221011
KAOO 201553Z AUTO 03005KT 10SM CLR 11/M01 A3026 RMK AO2 SLP253 T01061011
KAOO 201453Z AUTO 30007KT 10SM CLR 09/00 A3026 RMK AO2 SLP252 T00890000 51020
KAOO 201353Z AUTO 31009KT 10SM CLR 08/01 A3025 RMK AO2 SLP249 T00830011
KAOO 201253Z AUTO 27005KT 10SM CLR 05/01 A3023 RMK AO2 SLP244 T00500006
KAOO 201153Z AUTO 31004KT 10SM CLR 06/M01 A3020 RMK AO2 SLP231 T00561006 10083 20039 51022
KAOO 201053Z AUTO 00000KT 10SM CLR 04/00 A3017 RMK AO2 SLP223 T00440000
KAOO 200953Z AUTO 32006KT 10SM CLR 07/00 A3015 RMK AO2 SLP214 T00670000
KAOO 200853Z AUTO 32006KT 10SM CLR 07/01 A3013 RMK AO2 SLP204 T00670011 50006
KAOO 200753Z AUTO 30004KT 10SM CLR 06/02 A3013 RMK AO2 SLP205 T00610017
KAOO 200653Z AUTO 31004KT 10SM CLR 07/02 A3011 RMK AO2 SLP199 T00720022
KAOO 200553Z AUTO 29005KT 10SM CLR 08/02 A3011 RMK AO2 SLP198 T00780022 10117 20078 51009
KAOO 200453Z AUTO 28003KT 10SM CLR 09/03 A3011 RMK AO2 SLP198 T00890028 401780078
KAOO 200353Z AUTO 29008KT 10SM CLR 09/04 A3009 RMK AO2 SLP193 T00890039
KAOO 200253Z AUTO 26007KT 10SM CLR 09/05 A3008 RMK AO2 SLP189 T00890050 51021
KAOO 200153Z AUTO 27007KT 10SM CLR 09/05 A3006 RMK AO2 SLP183 T00940050
KAOO 200053Z AUTO 24007KT 10SM CLR 11/06 A3004 RMK AO2 SLP174 T01110056
KAOO 192353Z AUTO 23005KT 10SM CLR 12/04 A3002 RMK AO2 SLP167 T01220039 10178 20111 53021
KAOO 192253Z AUTO 25006KT 10SM CLR 13/04 A2999 RMK AO2 SLP158 T01280044
KAOO 192153Z AUTO 27013KT 10SM CLR 16/03 A2996 RMK AO2 SLP146 T01560033
KAOO 192053Z AUTO 30012G20KT 10SM CLR 17/03 A2995 RMK AO2 SLP142 T01670033 53008
KAOO 191953Z AUTO 32013G22KT 10SM CLR 17/02 A2994 RMK AO2 SLP136 T01720022
KAOO 191853Z AUTO 28013G18KT 10SM CLR 17/04 A2992 RMK AO2 SLP131 T01670039
KAOO 191753Z AUTO 27012G21KT 10SM CLR 16/05 A2992 RMK AO2 SLP132 T01560050 10156 20083 58010